sensor_id;sensor_type;location;lat;lon;timestamp;temperature;humidity
19803;DHT22;66074;50.764;6.090;2023-05-02T00:00:25;12.50;97.40
19803;DHT22;66074;50.764;6.090;2023-05-02T00:02:51;12.50;97.50
19803;DHT22;66074;50.764;6.090;2023-05-02T00:05:16;12.60;97.70
19803;DHT22;66074;50.764;6.090;2023-05-02T00:07:42;12.60;97.70
19803;DHT22;66074;50.764;6.090;2023-05-02T00:10:08;12.60;97.70
19803;DHT22;66074;50.764;6.090;2023-05-02T00:12:34;12.50;97.60
19803;DHT22;66074;50.764;6.090;2023-05-02T00:15:00;12.50;97.60
19803;DHT22;66074;50.764;6.090;2023-05-02T00:17:26;12.50;97.70
19803;DHT22;66074;50.764;6.090;2023-05-02T00:19:51;12.50;97.70
19803;DHT22;66074;50.764;6.090;2023-05-02T00:22:17;12.40;97.80
19803;DHT22;66074;50.764;6.090;2023-05-02T00:24:43;12.40;97.90
19803;DHT22;66074;50.764;6.090;2023-05-02T00:27:09;12.40;98.00
19803;DHT22;66074;50.764;6.090;2023-05-02T00:29:35;12.40;97.90
19803;DHT22;66074;50.764;6.090;2023-05-02T00:32:01;12.40;98.00
19803;DHT22;66074;50.764;6.090;2023-05-02T00:34:30;12.30;98.00
19803;DHT22;66074;50.764;6.090;2023-05-02T00:36:56;12.40;98.50
19803;DHT22;66074;50.764;6.090;2023-05-02T00:39:21;12.40;98.10
19803;DHT22;66074;50.764;6.090;2023-05-02T00:41:47;12.40;98.00
19803;DHT22;66074;50.764;6.090;2023-05-02T00:44:13;12.40;98.10
19803;DHT22;66074;50.764;6.090;2023-05-02T00:46:38;12.40;98.10
19803;DHT22;66074;50.764;6.090;2023-05-02T00:49:04;12.50;98.20
19803;DHT22;66074;50.764;6.090;2023-05-02T00:51:32;12.40;98.10
19803;DHT22;66074;50.764;6.090;2023-05-02T00:54:00;12.50;98.20
19803;DHT22;66074;50.764;6.090;2023-05-02T00:56:26;12.50;98.30
19803;DHT22;66074;50.764;6.090;2023-05-02T00:58:52;12.50;98.20
19803;DHT22;66074;50.764;6.090;2023-05-02T01:04:27;12.40;98.60
19803;DHT22;66074;50.764;6.090;2023-05-02T01:09:48;12.30;98.50
19803;DHT22;66074;50.764;6.090;2023-05-02T01:12:30;12.30;98.70
19803;DHT22;66074;50.764;6.090;2023-05-02T01:14:58;12.20;99.00
19803;DHT22;66074;50.764;6.090;2023-05-02T01:17:28;12.20;98.80
19803;DHT22;66074;50.764;6.090;2023-05-02T01:19:57;12.10;98.80
19803;DHT22;66074;50.764;6.090;2023-05-02T01:22:27;12.20;99.00
19803;DHT22;66074;50.764;6.090;2023-05-02T01:27:42;12.20;99.50
19803;DHT22;66074;50.764;6.090;2023-05-02T01:30:14;12.10;99.20
19803;DHT22;66074;50.764;6.090;2023-05-02T01:32:45;12.10;99.60
19803;DHT22;66074;50.764;6.090;2023-05-02T01:35:14;12.10;99.70
19803;DHT22;66074;50.764;6.090;2023-05-02T01:37:42;12.10;99.40
19803;DHT22;66074;50.764;6.090;2023-05-02T01:40:10;12.10;99.40
19803;DHT22;66074;50.764;6.090;2023-05-02T01:42:37;12.10;99.50
19803;DHT22;66074;50.764;6.090;2023-05-02T01:45:05;12.10;99.50
19803;DHT22;66074;50.764;6.090;2023-05-02T01:47:34;12.00;99.60
19803;DHT22;66074;50.764;6.090;2023-05-02T01:50:05;12.00;99.70
19803;DHT22;66074;50.764;6.090;2023-05-02T01:52:32;12.00;99.80
19803;DHT22;66074;50.764;6.090;2023-05-02T01:54:59;12.00;99.80
19803;DHT22;66074;50.764;6.090;2023-05-02T01:57:26;12.00;99.90
19803;DHT22;66074;50.764;6.090;2023-05-02T01:59:54;12.00;99.90
19803;DHT22;66074;50.764;6.090;2023-05-02T02:02:23;11.90;99.90
19803;DHT22;66074;50.764;6.090;2023-05-02T02:04:53;11.90;99.90
19803;DHT22;66074;50.764;6.090;2023-05-02T02:07:19;12.00;99.90
19803;DHT22;66074;50.764;6.090;2023-05-02T02:09:45;12.00;99.90
19803;DHT22;66074;50.764;6.090;2023-05-02T02:12:15;11.90;99.90
19803;DHT22;66074;50.764;6.090;2023-05-02T02:14:47;11.90;99.90
19803;DHT22;66074;50.764;6.090;2023-05-02T02:17:26;11.90;99.90
19803;DHT22;66074;50.764;6.090;2023-05-02T02:19:55;12.00;99.90
19803;DHT22;66074;50.764;6.090;2023-05-02T02:22:23;12.00;99.90
19803;DHT22;66074;50.764;6.090;2023-05-02T02:24:51;12.00;99.90
19803;DHT22;66074;50.764;6.090;2023-05-02T02:27:18;12.00;99.90
19803;DHT22;66074;50.764;6.090;2023-05-02T02:29:43;12.20;99.90
19803;DHT22;66074;50.764;6.090;2023-05-02T02:32:09;12.10;99.90
19803;DHT22;66074;50.764;6.090;2023-05-02T02:34:35;12.20;99.90
19803;DHT22;66074;50.764;6.090;2023-05-02T02:37:11;12.20;99.90
19803;DHT22;66074;50.764;6.090;2023-05-02T02:44:41;12.20;99.90
19803;DHT22;66074;50.764;6.090;2023-05-02T02:47:41;12.20;99.90
19803;DHT22;66074;50.764;6.090;2023-05-02T02:50:21;12.20;99.90
19803;DHT22;66074;50.764;6.090;2023-05-02T02:53:03;12.20;99.90
19803;DHT22;66074;50.764;6.090;2023-05-02T02:55:37;12.20;99.90
19803;DHT22;66074;50.764;6.090;2023-05-02T03:00:52;12.30;99.90
19803;DHT22;66074;50.764;6.090;2023-05-02T03:03:19;12.30;99.90
19803;DHT22;66074;50.764;6.090;2023-05-02T03:05:47;12.30;99.90
19803;DHT22;66074;50.764;6.090;2023-05-02T03:08:13;12.30;99.90
19803;DHT22;66074;50.764;6.090;2023-05-02T03:10:39;12.30;99.90
19803;DHT22;66074;50.764;6.090;2023-05-02T03:13:05;12.30;99.90
19803;DHT22;66074;50.764;6.090;2023-05-02T03:18:18;12.40;99.90
19803;DHT22;66074;50.764;6.090;2023-05-02T03:20:44;12.40;99.90
19803;DHT22;66074;50.764;6.090;2023-05-02T03:23:09;12.40;99.90
19803;DHT22;66074;50.764;6.090;2023-05-02T03:25:35;12.40;99.90
19803;DHT22;66074;50.764;6.090;2023-05-02T03:28:01;12.40;99.90
19803;DHT22;66074;50.764;6.090;2023-05-02T03:30:27;12.40;99.90
19803;DHT22;66074;50.764;6.090;2023-05-02T03:32:52;12.40;99.90
19803;DHT22;66074;50.764;6.090;2023-05-02T03:35:18;12.50;99.90
19803;DHT22;66074;50.764;6.090;2023-05-02T03:37:44;12.40;99.90
19803;DHT22;66074;50.764;6.090;2023-05-02T03:40:10;12.40;99.90
19803;DHT22;66074;50.764;6.090;2023-05-02T03:42:36;12.40;99.90
19803;DHT22;66074;50.764;6.090;2023-05-02T03:45:08;12.40;99.90
19803;DHT22;66074;50.764;6.090;2023-05-02T03:47:34;12.40;99.90
19803;DHT22;66074;50.764;6.090;2023-05-02T03:50:00;12.40;99.90
19803;DHT22;66074;50.764;6.090;2023-05-02T03:52:26;12.40;99.90
19803;DHT22;66074;50.764;6.090;2023-05-02T03:54:52;12.40;99.90
19803;DHT22;66074;50.764;6.090;2023-05-02T03:57:18;12.40;99.90
19803;DHT22;66074;50.764;6.090;2023-05-02T03:59:44;12.40;99.90
19803;DHT22;66074;50.764;6.090;2023-05-02T04:02:13;12.40;99.90
19803;DHT22;66074;50.764;6.090;2023-05-02T04:04:39;12.30;99.90
19803;DHT22;66074;50.764;6.090;2023-05-02T04:07:05;12.10;99.90
19803;DHT22;66074;50.764;6.090;2023-05-02T04:09:32;12.10;99.90
19803;DHT22;66074;50.764;6.090;2023-05-02T04:11:58;12.00;99.90
19803;DHT22;66074;50.764;6.090;2023-05-02T04:14:24;12.00;99.90
19803;DHT22;66074;50.764;6.090;2023-05-02T04:16:50;12.00;99.90
19803;DHT22;66074;50.764;6.090;2023-05-02T04:19:17;11.90;99.90
19803;DHT22;66074;50.764;6.090;2023-05-02T04:21:43;11.90;99.90
19803;DHT22;66074;50.764;6.090;2023-05-02T04:24:09;11.90;99.90
19803;DHT22;66074;50.764;6.090;2023-05-02T04:26:35;12.00;99.90
19803;DHT22;66074;50.764;6.090;2023-05-02T04:29:01;12.00;99.90
19803;DHT22;66074;50.764;6.090;2023-05-02T04:31:27;12.00;99.90
19803;DHT22;66074;50.764;6.090;2023-05-02T04:33:52;12.00;99.90
19803;DHT22;66074;50.764;6.090;2023-05-02T04:36:18;12.10;99.90
19803;DHT22;66074;50.764;6.090;2023-05-02T04:38:44;12.10;99.90
19803;DHT22;66074;50.764;6.090;2023-05-02T04:41:10;12.20;99.90
19803;DHT22;66074;50.764;6.090;2023-05-02T04:43:37;12.00;99.90
19803;DHT22;66074;50.764;6.090;2023-05-02T04:46:02;12.00;99.90
19803;DHT22;66074;50.764;6.090;2023-05-02T04:48:28;11.90;99.90
19803;DHT22;66074;50.764;6.090;2023-05-02T04:50:54;11.90;99.90
19803;DHT22;66074;50.764;6.090;2023-05-02T04:53:22;11.90;99.90
19803;DHT22;66074;50.764;6.090;2023-05-02T04:55:48;11.90;99.90
19803;DHT22;66074;50.764;6.090;2023-05-02T04:58:14;11.90;99.90
19803;DHT22;66074;50.764;6.090;2023-05-02T05:00:40;11.80;99.90
19803;DHT22;66074;50.764;6.090;2023-05-02T05:03:05;11.80;99.90
19803;DHT22;66074;50.764;6.090;2023-05-02T05:05:31;11.80;99.90
19803;DHT22;66074;50.764;6.090;2023-05-02T05:07:57;11.90;99.90
19803;DHT22;66074;50.764;6.090;2023-05-02T05:10:23;11.90;99.90
19803;DHT22;66074;50.764;6.090;2023-05-02T05:12:48;12.00;99.90
19803;DHT22;66074;50.764;6.090;2023-05-02T05:15:15;12.10;99.90
19803;DHT22;66074;50.764;6.090;2023-05-02T05:17:40;12.00;99.90
19803;DHT22;66074;50.764;6.090;2023-05-02T05:20:07;12.00;99.90
19803;DHT22;66074;50.764;6.090;2023-05-02T05:22:39;12.00;99.90
19803;DHT22;66074;50.764;6.090;2023-05-02T05:25:06;12.00;99.90
19803;DHT22;66074;50.764;6.090;2023-05-02T05:27:33;11.90;99.90
19803;DHT22;66074;50.764;6.090;2023-05-02T05:29:59;11.90;99.90
19803;DHT22;66074;50.764;6.090;2023-05-02T05:32:24;11.80;99.90
19803;DHT22;66074;50.764;6.090;2023-05-02T05:34:53;11.80;99.90
19803;DHT22;66074;50.764;6.090;2023-05-02T05:37:19;11.70;99.90
19803;DHT22;66074;50.764;6.090;2023-05-02T05:39:46;11.80;99.90
19803;DHT22;66074;50.764;6.090;2023-05-02T05:42:11;11.80;99.90
19803;DHT22;66074;50.764;6.090;2023-05-02T05:44:37;11.80;99.90
19803;DHT22;66074;50.764;6.090;2023-05-02T05:47:03;11.80;99.90
19803;DHT22;66074;50.764;6.090;2023-05-02T05:49:29;11.80;99.90
19803;DHT22;66074;50.764;6.090;2023-05-02T05:51:55;11.70;99.90
19803;DHT22;66074;50.764;6.090;2023-05-02T05:54:21;11.60;99.90
19803;DHT22;66074;50.764;6.090;2023-05-02T05:56:46;11.50;99.90
19803;DHT22;66074;50.764;6.090;2023-05-02T05:59:12;11.50;99.90
19803;DHT22;66074;50.764;6.090;2023-05-02T06:01:38;11.50;99.90
19803;DHT22;66074;50.764;6.090;2023-05-02T06:04:04;11.50;99.90
19803;DHT22;66074;50.764;6.090;2023-05-02T06:06:30;11.50;99.90
19803;DHT22;66074;50.764;6.090;2023-05-02T06:08:59;11.50;99.90
19803;DHT22;66074;50.764;6.090;2023-05-02T06:11:25;11.50;99.90
19803;DHT22;66074;50.764;6.090;2023-05-02T06:13:51;11.40;99.90
19803;DHT22;66074;50.764;6.090;2023-05-02T06:16:17;11.40;99.90
19803;DHT22;66074;50.764;6.090;2023-05-02T06:18:46;11.40;99.90
19803;DHT22;66074;50.764;6.090;2023-05-02T06:21:12;11.30;99.90
19803;DHT22;66074;50.764;6.090;2023-05-02T06:23:37;11.20;99.90
19803;DHT22;66074;50.764;6.090;2023-05-02T06:26:04;11.30;99.90
19803;DHT22;66074;50.764;6.090;2023-05-02T06:28:30;11.40;99.90
19803;DHT22;66074;50.764;6.090;2023-05-02T06:31:00;11.50;99.90
19803;DHT22;66074;50.764;6.090;2023-05-02T06:33:30;11.60;99.90
19803;DHT22;66074;50.764;6.090;2023-05-02T06:35:56;11.70;99.90
19803;DHT22;66074;50.764;6.090;2023-05-02T06:38:22;11.80;99.90
19803;DHT22;66074;50.764;6.090;2023-05-02T06:40:48;11.80;99.90
19803;DHT22;66074;50.764;6.090;2023-05-02T06:43:14;11.80;99.90
19803;DHT22;66074;50.764;6.090;2023-05-02T06:45:40;11.90;99.90
19803;DHT22;66074;50.764;6.090;2023-05-02T06:48:06;11.90;99.90
19803;DHT22;66074;50.764;6.090;2023-05-02T06:50:32;11.90;99.90
19803;DHT22;66074;50.764;6.090;2023-05-02T06:52:58;11.90;99.90
19803;DHT22;66074;50.764;6.090;2023-05-02T06:55:24;12.00;99.90
19803;DHT22;66074;50.764;6.090;2023-05-02T06:57:50;12.00;99.90
19803;DHT22;66074;50.764;6.090;2023-05-02T07:00:17;12.00;99.90
19803;DHT22;66074;50.764;6.090;2023-05-02T07:02:46;12.00;99.90
19803;DHT22;66074;50.764;6.090;2023-05-02T07:05:12;12.10;99.90
19803;DHT22;66074;50.764;6.090;2023-05-02T07:07:40;12.10;99.90
19803;DHT22;66074;50.764;6.090;2023-05-02T07:10:07;12.10;99.90
19803;DHT22;66074;50.764;6.090;2023-05-02T07:12:33;12.10;99.90
19803;DHT22;66074;50.764;6.090;2023-05-02T07:14:58;12.10;99.90
19803;DHT22;66074;50.764;6.090;2023-05-02T07:17:24;12.10;99.90
19803;DHT22;66074;50.764;6.090;2023-05-02T07:19:51;12.20;99.90
19803;DHT22;66074;50.764;6.090;2023-05-02T07:22:16;12.30;99.90
19803;DHT22;66074;50.764;6.090;2023-05-02T07:24:42;12.40;99.90
19803;DHT22;66074;50.764;6.090;2023-05-02T07:27:09;12.40;99.90
19803;DHT22;66074;50.764;6.090;2023-05-02T07:29:35;12.50;99.90
19803;DHT22;66074;50.764;6.090;2023-05-02T07:32:01;12.50;99.90
19803;DHT22;66074;50.764;6.090;2023-05-02T07:34:26;12.50;99.90
19803;DHT22;66074;50.764;6.090;2023-05-02T07:36:52;12.50;99.90
19803;DHT22;66074;50.764;6.090;2023-05-02T07:39:18;12.50;99.90
19803;DHT22;66074;50.764;6.090;2023-05-02T07:41:44;12.50;99.90
19803;DHT22;66074;50.764;6.090;2023-05-02T07:44:10;12.50;99.90
19803;DHT22;66074;50.764;6.090;2023-05-02T07:46:36;12.50;99.90
19803;DHT22;66074;50.764;6.090;2023-05-02T07:49:01;12.50;99.90
19803;DHT22;66074;50.764;6.090;2023-05-02T07:51:27;12.50;99.90
19803;DHT22;66074;50.764;6.090;2023-05-02T07:53:53;12.50;99.90
19803;DHT22;66074;50.764;6.090;2023-05-02T07:56:23;12.60;99.90
19803;DHT22;66074;50.764;6.090;2023-05-02T07:58:49;12.40;99.90
19803;DHT22;66074;50.764;6.090;2023-05-02T08:01:16;12.50;99.90
19803;DHT22;66074;50.764;6.090;2023-05-02T08:03:42;12.60;99.90
19803;DHT22;66074;50.764;6.090;2023-05-02T08:06:08;12.60;99.90
19803;DHT22;66074;50.764;6.090;2023-05-02T08:08:34;12.60;99.90
19803;DHT22;66074;50.764;6.090;2023-05-02T08:11:00;12.70;99.90
19803;DHT22;66074;50.764;6.090;2023-05-02T08:13:26;12.70;99.90
19803;DHT22;66074;50.764;6.090;2023-05-02T08:15:52;12.90;99.90
19803;DHT22;66074;50.764;6.090;2023-05-02T08:18:23;12.90;99.90
19803;DHT22;66074;50.764;6.090;2023-05-02T08:20:49;12.70;99.90
19803;DHT22;66074;50.764;6.090;2023-05-02T08:23:15;12.60;99.90
19803;DHT22;66074;50.764;6.090;2023-05-02T08:25:41;12.60;99.90
19803;DHT22;66074;50.764;6.090;2023-05-02T08:28:07;12.40;99.90
19803;DHT22;66074;50.764;6.090;2023-05-02T08:30:32;12.50;99.90
19803;DHT22;66074;50.764;6.090;2023-05-02T08:32:58;12.40;99.90
19803;DHT22;66074;50.764;6.090;2023-05-02T08:35:24;12.40;99.90
19803;DHT22;66074;50.764;6.090;2023-05-02T08:37:49;12.40;99.90
19803;DHT22;66074;50.764;6.090;2023-05-02T08:40:16;12.30;99.70
19803;DHT22;66074;50.764;6.090;2023-05-02T08:42:43;12.30;99.30
19803;DHT22;66074;50.764;6.090;2023-05-02T08:45:11;12.30;99.30
19803;DHT22;66074;50.764;6.090;2023-05-02T08:47:46;12.40;98.70
19803;DHT22;66074;50.764;6.090;2023-05-02T08:50:16;12.50;98.10
19803;DHT22;66074;50.764;6.090;2023-05-02T08:52:45;12.60;98.50
19803;DHT22;66074;50.764;6.090;2023-05-02T08:55:11;12.80;98.70
19803;DHT22;66074;50.764;6.090;2023-05-02T08:57:38;13.10;98.60
19803;DHT22;66074;50.764;6.090;2023-05-02T09:00:05;13.30;98.30
19803;DHT22;66074;50.764;6.090;2023-05-02T09:05:18;13.40;97.50
19803;DHT22;66074;50.764;6.090;2023-05-02T09:07:47;13.20;96.10
19803;DHT22;66074;50.764;6.090;2023-05-02T09:10:13;13.30;97.30
19803;DHT22;66074;50.764;6.090;2023-05-02T09:12:40;13.50;97.10
19803;DHT22;66074;50.764;6.090;2023-05-02T09:15:14;13.60;97.00
19803;DHT22;66074;50.764;6.090;2023-05-02T09:17:45;13.60;95.60
19803;DHT22;66074;50.764;6.090;2023-05-02T09:20:12;13.50;96.50
19803;DHT22;66074;50.764;6.090;2023-05-02T09:22:38;13.50;95.60
19803;DHT22;66074;50.764;6.090;2023-05-02T09:25:07;13.50;96.40
19803;DHT22;66074;50.764;6.090;2023-05-02T09:27:52;13.50;95.90
19803;DHT22;66074;50.764;6.090;2023-05-02T09:32:46;13.50;96.10
19803;DHT22;66074;50.764;6.090;2023-05-02T09:35:12;13.60;95.90
19803;DHT22;66074;50.764;6.090;2023-05-02T09:37:38;13.60;95.70
19803;DHT22;66074;50.764;6.090;2023-05-02T09:40:05;13.50;95.50
19803;DHT22;66074;50.764;6.090;2023-05-02T09:42:31;13.50;95.40
19803;DHT22;66074;50.764;6.090;2023-05-02T09:44:57;13.60;95.40
19803;DHT22;66074;50.764;6.090;2023-05-02T09:47:24;13.70;94.60
19803;DHT22;66074;50.764;6.090;2023-05-02T09:49:51;13.60;94.60
19803;DHT22;66074;50.764;6.090;2023-05-02T09:52:18;13.70;94.30
19803;DHT22;66074;50.764;6.090;2023-05-02T09:54:47;13.60;94.00
19803;DHT22;66074;50.764;6.090;2023-05-02T09:57:15;13.80;94.50
19803;DHT22;66074;50.764;6.090;2023-05-02T09:59:51;13.70;94.30
19803;DHT22;66074;50.764;6.090;2023-05-02T10:02:17;14.00;94.40
19803;DHT22;66074;50.764;6.090;2023-05-02T10:04:45;14.20;93.70
19803;DHT22;66074;50.764;6.090;2023-05-02T10:07:12;14.20;93.50
19803;DHT22;66074;50.764;6.090;2023-05-02T10:09:43;14.40;93.80
19803;DHT22;66074;50.764;6.090;2023-05-02T10:12:13;14.50;93.40
19803;DHT22;66074;50.764;6.090;2023-05-02T10:14:40;14.40;93.20
19803;DHT22;66074;50.764;6.090;2023-05-02T10:17:13;14.40;93.40
19803;DHT22;66074;50.764;6.090;2023-05-02T10:22:23;14.30;93.30
19803;DHT22;66074;50.764;6.090;2023-05-02T10:24:50;14.50;92.70
19803;DHT22;66074;50.764;6.090;2023-05-02T10:27:17;14.50;93.10
19803;DHT22;66074;50.764;6.090;2023-05-02T10:29:43;14.30;92.70
19803;DHT22;66074;50.764;6.090;2023-05-02T10:32:10;14.40;93.00
19803;DHT22;66074;50.764;6.090;2023-05-02T10:34:35;14.30;92.60
19803;DHT22;66074;50.764;6.090;2023-05-02T10:37:02;14.10;92.40
19803;DHT22;66074;50.764;6.090;2023-05-02T10:39:28;14.00;92.70
19803;DHT22;66074;50.764;6.090;2023-05-02T10:41:56;14.10;92.80
19803;DHT22;66074;50.764;6.090;2023-05-02T10:44:35;14.30;92.70
19803;DHT22;66074;50.764;6.090;2023-05-02T10:47:23;14.50;92.00
19803;DHT22;66074;50.764;6.090;2023-05-02T10:52:31;14.80;91.70
19803;DHT22;66074;50.764;6.090;2023-05-02T10:55:19;14.90;91.20
19803;DHT22;66074;50.764;6.090;2023-05-02T11:00:25;14.80;92.00
19803;DHT22;66074;50.764;6.090;2023-05-02T11:02:51;15.00;92.60
19803;DHT22;66074;50.764;6.090;2023-05-02T11:05:16;15.00;92.20
19803;DHT22;66074;50.764;6.090;2023-05-02T11:07:42;15.00;92.20
19803;DHT22;66074;50.764;6.090;2023-05-02T11:10:23;14.90;92.20
19803;DHT22;66074;50.764;6.090;2023-05-02T11:12:51;14.90;91.40
19803;DHT22;66074;50.764;6.090;2023-05-02T11:18:03;14.90;91.60
19803;DHT22;66074;50.764;6.090;2023-05-02T11:20:32;14.90;91.60
19803;DHT22;66074;50.764;6.090;2023-05-02T11:23:19;14.90;92.30
19803;DHT22;66074;50.764;6.090;2023-05-02T11:25:55;14.90;91.10
19803;DHT22;66074;50.764;6.090;2023-05-02T11:31:07;14.70;91.40
19803;DHT22;66074;50.764;6.090;2023-05-02T11:33:34;14.80;91.30
19803;DHT22;66074;50.764;6.090;2023-05-02T11:36:00;14.80;91.20
19803;DHT22;66074;50.764;6.090;2023-05-02T11:38:36;14.90;91.70
19803;DHT22;66074;50.764;6.090;2023-05-02T11:41:03;15.30;91.30
19803;DHT22;66074;50.764;6.090;2023-05-02T11:43:29;15.40;91.10
19803;DHT22;66074;50.764;6.090;2023-05-02T11:45:55;15.30;90.50
19803;DHT22;66074;50.764;6.090;2023-05-02T11:48:22;15.20;91.00
19803;DHT22;66074;50.764;6.090;2023-05-02T11:50:54;15.10;91.00
19803;DHT22;66074;50.764;6.090;2023-05-02T11:53:25;14.90;90.60
19803;DHT22;66074;50.764;6.090;2023-05-02T11:55:55;14.90;90.30
19803;DHT22;66074;50.764;6.090;2023-05-02T11:58:23;14.90;90.60
19803;DHT22;66074;50.764;6.090;2023-05-02T12:00:50;15.00;91.00
19803;DHT22;66074;50.764;6.090;2023-05-02T12:03:30;15.20;91.00
19803;DHT22;66074;50.764;6.090;2023-05-02T12:06:07;15.40;90.20
19803;DHT22;66074;50.764;6.090;2023-05-02T12:08:35;15.60;90.90
19803;DHT22;66074;50.764;6.090;2023-05-02T12:11:00;15.60;90.40
19803;DHT22;66074;50.764;6.090;2023-05-02T12:13:27;15.50;90.50
19803;DHT22;66074;50.764;6.090;2023-05-02T12:15:54;15.40;90.50
19803;DHT22;66074;50.764;6.090;2023-05-02T12:18:22;15.40;90.20
19803;DHT22;66074;50.764;6.090;2023-05-02T12:20:51;15.40;90.00
19803;DHT22;66074;50.764;6.090;2023-05-02T12:23:22;15.30;90.30
19803;DHT22;66074;50.764;6.090;2023-05-02T12:25:48;15.20;90.30
19803;DHT22;66074;50.764;6.090;2023-05-02T12:28:17;15.20;90.30
19803;DHT22;66074;50.764;6.090;2023-05-02T12:30:46;15.10;90.00
19803;DHT22;66074;50.764;6.090;2023-05-02T12:33:12;15.10;89.60
19803;DHT22;66074;50.764;6.090;2023-05-02T12:35:38;15.30;90.50
19803;DHT22;66074;50.764;6.090;2023-05-02T12:40:33;15.70;89.50
19803;DHT22;66074;50.764;6.090;2023-05-02T12:43:00;15.90;89.90
19803;DHT22;66074;50.764;6.090;2023-05-02T12:45:29;16.10;89.30
19803;DHT22;66074;50.764;6.090;2023-05-02T12:48:01;16.40;89.50
19803;DHT22;66074;50.764;6.090;2023-05-02T12:50:37;16.50;88.10
19803;DHT22;66074;50.764;6.090;2023-05-02T12:53:03;16.30;86.20
19803;DHT22;66074;50.764;6.090;2023-05-02T12:55:29;16.20;87.10
19803;DHT22;66074;50.764;6.090;2023-05-02T12:58:03;16.20;87.90
19803;DHT22;66074;50.764;6.090;2023-05-02T13:00:33;16.10;87.20
19803;DHT22;66074;50.764;6.090;2023-05-02T13:02:59;16.20;87.70
19803;DHT22;66074;50.764;6.090;2023-05-02T13:05:25;16.30;87.80
19803;DHT22;66074;50.764;6.090;2023-05-02T13:07:51;16.10;87.50
19803;DHT22;66074;50.764;6.090;2023-05-02T13:10:17;16.20;88.00
19803;DHT22;66074;50.764;6.090;2023-05-02T13:12:44;16.30;87.90
19803;DHT22;66074;50.764;6.090;2023-05-02T13:15:11;16.40;87.50
19803;DHT22;66074;50.764;6.090;2023-05-02T13:17:37;16.50;87.70
19803;DHT22;66074;50.764;6.090;2023-05-02T13:20:03;16.70;87.80
19803;DHT22;66074;50.764;6.090;2023-05-02T13:22:28;16.90;86.50
19803;DHT22;66074;50.764;6.090;2023-05-02T13:24:54;16.80;86.30
19803;DHT22;66074;50.764;6.090;2023-05-02T13:27:23;16.80;86.20
19803;DHT22;66074;50.764;6.090;2023-05-02T13:29:49;16.40;83.80
19803;DHT22;66074;50.764;6.090;2023-05-02T13:32:15;16.10;85.50
19803;DHT22;66074;50.764;6.090;2023-05-02T13:34:41;15.90;86.30
19803;DHT22;66074;50.764;6.090;2023-05-02T13:37:07;15.90;85.80
19803;DHT22;66074;50.764;6.090;2023-05-02T13:39:32;16.00;84.90
19803;DHT22;66074;50.764;6.090;2023-05-02T13:41:58;16.30;84.90
19803;DHT22;66074;50.764;6.090;2023-05-02T13:44:24;17.20;84.90
19803;DHT22;66074;50.764;6.090;2023-05-02T13:46:49;17.30;84.20
19803;DHT22;66074;50.764;6.090;2023-05-02T13:49:15;17.20;83.80
19803;DHT22;66074;50.764;6.090;2023-05-02T13:51:41;17.30;83.60
19803;DHT22;66074;50.764;6.090;2023-05-02T13:54:06;17.90;83.10
19803;DHT22;66074;50.764;6.090;2023-05-02T13:56:32;18.10;82.90
19803;DHT22;66074;50.764;6.090;2023-05-02T13:58:57;18.50;82.60
19803;DHT22;66074;50.764;6.090;2023-05-02T14:01:23;17.90;82.00
19803;DHT22;66074;50.764;6.090;2023-05-02T14:03:51;17.40;81.30
19803;DHT22;66074;50.764;6.090;2023-05-02T14:06:16;16.90;81.80
19803;DHT22;66074;50.764;6.090;2023-05-02T14:08:42;16.60;82.20
19803;DHT22;66074;50.764;6.090;2023-05-02T14:11:09;16.30;82.20
19803;DHT22;66074;50.764;6.090;2023-05-02T14:13:35;16.40;82.50
19803;DHT22;66074;50.764;6.090;2023-05-02T14:16:01;16.60;82.60
19803;DHT22;66074;50.764;6.090;2023-05-02T14:18:27;17.70;82.70
19803;DHT22;66074;50.764;6.090;2023-05-02T14:20:52;17.70;81.80
19803;DHT22;66074;50.764;6.090;2023-05-02T14:23:18;17.90;81.50
19803;DHT22;66074;50.764;6.090;2023-05-02T14:25:44;18.20;80.20
19803;DHT22;66074;50.764;6.090;2023-05-02T14:28:09;19.10;81.10
19803;DHT22;66074;50.764;6.090;2023-05-02T14:30:35;21.40;79.80
19803;DHT22;66074;50.764;6.090;2023-05-02T14:33:01;21.40;76.00
19803;DHT22;66074;50.764;6.090;2023-05-02T14:35:26;20.60;76.90
19803;DHT22;66074;50.764;6.090;2023-05-02T14:37:52;19.90;76.80
19803;DHT22;66074;50.764;6.090;2023-05-02T14:40:17;22.10;77.30
19803;DHT22;66074;50.764;6.090;2023-05-02T14:42:43;23.80;76.80
19803;DHT22;66074;50.764;6.090;2023-05-02T14:45:09;25.40;76.20
19803;DHT22;66074;50.764;6.090;2023-05-02T14:47:35;25.80;71.80
19803;DHT22;66074;50.764;6.090;2023-05-02T14:50:04;25.90;72.40
19803;DHT22;66074;50.764;6.090;2023-05-02T14:52:30;27.30;67.30
19803;DHT22;66074;50.764;6.090;2023-05-02T14:54:58;27.60;69.50
19803;DHT22;66074;50.764;6.090;2023-05-02T14:57:24;28.30;68.70
19803;DHT22;66074;50.764;6.090;2023-05-02T14:59:50;28.30;69.30
19803;DHT22;66074;50.764;6.090;2023-05-02T15:02:16;29.50;69.70
19803;DHT22;66074;50.764;6.090;2023-05-02T15:04:41;30.50;67.60
19803;DHT22;66074;50.764;6.090;2023-05-02T15:07:07;30.30;66.40
19803;DHT22;66074;50.764;6.090;2023-05-02T15:09:32;29.40;66.50
19803;DHT22;66074;50.764;6.090;2023-05-02T15:11:58;27.30;65.30
19803;DHT22;66074;50.764;6.090;2023-05-02T15:14:24;25.60;65.10
19803;DHT22;66074;50.764;6.090;2023-05-02T15:16:49;24.00;65.60
19803;DHT22;66074;50.764;6.090;2023-05-02T15:19:15;22.60;65.30
19803;DHT22;66074;50.764;6.090;2023-05-02T15:21:41;22.00;66.20
19803;DHT22;66074;50.764;6.090;2023-05-02T15:24:07;22.00;66.00
19803;DHT22;66074;50.764;6.090;2023-05-02T15:26:32;21.40;66.00
19803;DHT22;66074;50.764;6.090;2023-05-02T15:28:58;22.30;67.20
19803;DHT22;66074;50.764;6.090;2023-05-02T15:31:23;23.90;67.40
19803;DHT22;66074;50.764;6.090;2023-05-02T15:33:50;23.80;66.90
19803;DHT22;66074;50.764;6.090;2023-05-02T15:36:16;23.00;65.20
19803;DHT22;66074;50.764;6.090;2023-05-02T15:38:41;22.00;65.10
19803;DHT22;66074;50.764;6.090;2023-05-02T15:41:11;21.30;65.40
19803;DHT22;66074;50.764;6.090;2023-05-02T15:43:36;20.90;65.60
19803;DHT22;66074;50.764;6.090;2023-05-02T15:46:02;20.20;65.80
19803;DHT22;66074;50.764;6.090;2023-05-02T15:48:29;19.90;66.50
19803;DHT22;66074;50.764;6.090;2023-05-02T15:50:57;19.50;66.80
19803;DHT22;66074;50.764;6.090;2023-05-02T15:53:23;19.30;66.70
19803;DHT22;66074;50.764;6.090;2023-05-02T15:55:50;19.00;66.40
19803;DHT22;66074;50.764;6.090;2023-05-02T15:58:16;18.80;66.60
19803;DHT22;66074;50.764;6.090;2023-05-02T16:00:42;18.60;66.30
19803;DHT22;66074;50.764;6.090;2023-05-02T16:03:08;18.00;66.10
19803;DHT22;66074;50.764;6.090;2023-05-02T16:05:34;17.60;66.40
19803;DHT22;66074;50.764;6.090;2023-05-02T16:08:00;17.50;66.80
19803;DHT22;66074;50.764;6.090;2023-05-02T16:10:26;17.40;67.10